createdAt,value
2022-11-14T00:00:16.121Z,39.00
2022-11-14T00:03:13.124Z,34.75
2022-11-14T00:06:00.708Z,38.25
2022-11-14T00:08:47.717Z,36.75
2022-11-14T00:11:36.412Z,39.75
2022-11-14T00:14:23.703Z,36.50
2022-11-14T00:17:11.154Z,34.50
2022-11-14T00:19:58.116Z,36.25
2022-11-14T00:22:45.802Z,36.75
2022-11-14T00:25:33.786Z,36.25
2022-11-14T00:28:22.772Z,40.25
2022-11-14T00:31:10.897Z,38.25
2022-11-14T00:33:58.649Z,38.50
2022-11-14T00:36:45.892Z,37.50
2022-11-14T00:39:33.370Z,40.25
2022-11-14T00:42:20.515Z,42.50
2022-11-14T00:45:10.985Z,39.00
2022-11-14T00:47:57.865Z,40.00
2022-11-14T00:50:45.753Z,38.50
2022-11-14T00:53:32.986Z,39.00
2022-11-14T00:56:20.730Z,43.75
2022-11-14T00:59:07.900Z,39.75
2022-11-14T01:01:58.098Z,33.75
2022-11-14T01:04:45.584Z,39.75
2022-11-14T01:07:33.445Z,43.50
2022-11-14T01:10:21.074Z,39.00
2022-11-14T01:13:08.255Z,43.50
2022-11-14T01:15:56.226Z,44.00
2022-11-14T01:18:44.935Z,43.00
2022-11-14T01:21:32.676Z,45.50
2022-11-14T01:24:20.173Z,37.75
2022-11-14T01:27:07.249Z,42.50
2022-11-14T01:29:54.642Z,44.00
2022-11-14T01:32:41.632Z,41.25
2022-11-14T01:35:30.758Z,43.00
2022-11-14T01:38:18.172Z,42.50
2022-11-14T01:41:07.007Z,41.00
2022-11-14T01:43:54.258Z,42.50
2022-11-14T01:46:44.730Z,42.25
2022-11-14T01:49:39.634Z,43.25
2022-11-14T01:52:32.983Z,35.50
2022-11-14T01:55:19.842Z,42.25
2022-11-14T01:58:08.116Z,41.75
2022-11-14T02:00:55.419Z,42.00
2022-11-14T02:03:45.610Z,45.50
2022-11-14T02:06:34.672Z,9.25
2022-11-14T02:09:24.151Z,39.50
2022-11-14T02:12:16.072Z,38.50
2022-11-14T02:15:03.762Z,39.50
2022-11-14T02:17:51.253Z,40.75
2022-11-14T02:20:43.404Z,40.75
2022-11-14T02:23:32.336Z,43.75
2022-11-14T02:26:20.383Z,42.50
2022-11-14T02:29:08.438Z,46.25
2022-11-14T02:31:55.920Z,45.00
2022-11-14T02:34:43.283Z,45.00
2022-11-14T02:37:32.750Z,45.25
2022-11-14T02:40:20.067Z,48.75
2022-11-14T02:43:07.670Z,47.25
2022-11-14T02:45:55.201Z,46.50
2022-11-14T02:48:42.669Z,49.00
2022-11-14T02:51:29.569Z,47.00
2022-11-14T02:54:18.579Z,44.25
2022-11-14T02:57:05.773Z,48.75
2022-11-14T02:59:53.524Z,50.00
2022-11-14T03:02:40.652Z,45.25
2022-11-14T03:05:28.533Z,41.75
2022-11-14T03:08:15.402Z,44.75
2022-11-14T03:11:07.511Z,41.50
2022-11-14T03:13:54.545Z,48.75
2022-11-14T03:16:41.851Z,44.00
2022-11-14T03:19:29.209Z,45.75
2022-11-14T03:22:16.643Z,48.50
2022-11-14T03:25:03.926Z,47.50
2022-11-14T03:27:53.062Z,47.00
2022-11-14T03:30:40.335Z,45.50
2022-11-14T03:33:28.140Z,46.75
2022-11-14T03:36:15.301Z,47.75
2022-11-14T03:39:02.873Z,45.75
2022-11-14T03:41:50.091Z,49.50
2022-11-14T03:44:39.003Z,42.50
2022-11-14T03:47:25.917Z,48.50
2022-11-14T03:50:13.599Z,46.50
2022-11-14T03:53:00.853Z,46.75
2022-11-14T03:55:48.487Z,43.75
2022-11-14T03:58:35.705Z,47.50
2022-11-14T04:01:24.755Z,44.75
2022-11-14T04:04:13.501Z,46.75
2022-11-14T04:07:00.909Z,46.50
2022-11-14T04:09:48.003Z,49.00
2022-11-14T04:12:35.268Z,48.25
2022-11-14T04:15:22.633Z,45.25
2022-11-14T04:18:11.579Z,50.50
2022-11-14T04:20:58.774Z,46.50
2022-11-14T04:23:46.025Z,50.50
2022-11-14T04:26:33.055Z,61.00
2022-11-14T04:29:20.346Z,51.00
2022-11-14T04:32:07.840Z,49.00
2022-11-14T04:34:56.605Z,50.00
2022-11-14T04:37:44.563Z,48.75
2022-11-14T04:40:32.304Z,79.00
2022-11-14T04:43:19.913Z,51.75
2022-11-14T04:46:08.090Z,47.75
2022-11-14T04:48:55.189Z,50.50
2022-11-14T04:52:04.687Z,60.67
2022-11-14T04:54:51.790Z,60.67
2022-11-14T04:57:39.671Z,51.75
2022-11-14T05:00:28.686Z,50.75
2022-11-14T05:03:16.046Z,60.67
2022-11-14T05:06:03.391Z,51.50
2022-11-14T05:08:52.507Z,50.25
2022-11-14T05:11:39.697Z,49.00
2022-11-14T05:14:27.077Z,50.75
2022-11-14T05:17:14.757Z,59.00
2022-11-14T05:20:04.530Z,54.00
2022-11-14T05:23:21.637Z,56.25
2022-11-14T05:26:12.650Z,52.75
2022-11-14T05:28:59.985Z,50.00
2022-11-14T05:31:47.975Z,52.00
2022-11-14T05:34:35.091Z,57.75
2022-11-14T05:37:24.153Z,76.50
2022-11-14T05:40:12.613Z,57.00
2022-11-14T05:43:02.367Z,51.00
2022-11-14T05:50:59.592Z,55.00
2022-11-14T05:53:47.865Z,52.50
2022-11-14T05:56:35.576Z,52.25
2022-11-14T05:59:25.166Z,50.50
2022-11-14T06:02:12.851Z,120.50
2022-11-14T06:05:00.885Z,56.00
2022-11-14T06:07:48.372Z,47.50
2022-11-14T06:10:37.503Z,47.75
2022-11-14T06:13:25.099Z,48.75
2022-11-14T06:16:15.475Z,60.50
2022-11-14T06:19:02.382Z,58.50
2022-11-14T06:21:50.016Z,51.00
2022-11-14T06:24:37.331Z,52.50
2022-11-14T06:27:24.821Z,53.00
2022-11-14T06:30:13.958Z,56.25
2022-11-14T06:33:03.220Z,55.75
2022-11-14T06:35:54.867Z,59.50
2022-11-14T06:38:44.935Z,57.75
2022-11-14T06:41:35.855Z,58.33
2022-11-14T06:48:02.504Z,46.33
2022-11-14T06:50:53.446Z,62.67
2022-11-14T06:53:42.669Z,62.67
2022-11-14T06:56:32.238Z,60.00
2022-11-14T06:59:19.390Z,59.00
2022-11-14T07:02:08.982Z,60.00
2022-11-14T07:04:58.638Z,59.67
2022-11-14T07:07:46.664Z,58.25
2022-11-14T07:10:34.051Z,54.25
2022-11-14T07:13:22.113Z,57.00
2022-11-14T07:16:09.660Z,55.00
2022-11-14T07:18:58.060Z,58.00
2022-11-14T07:21:48.804Z,59.33
2022-11-14T07:24:36.584Z,58.00
2022-11-14T07:27:23.718Z,61.67
2022-11-14T07:30:11.809Z,58.67
2022-11-14T07:32:59.530Z,63.75
2022-11-14T07:35:46.711Z,49.33
2022-11-14T07:38:36.141Z,57.00
2022-11-14T07:41:23.195Z,64.00
2022-11-14T07:44:10.425Z,65.25
2022-11-14T07:46:58.135Z,56.33
2022-11-14T07:49:45.327Z,58.75
2022-11-14T07:52:33.728Z,58.00
2022-11-14T07:55:22.346Z,58.33
2022-11-14T07:58:09.921Z,95.50
2022-11-14T08:00:57.163Z,58.33
2022-11-14T08:03:46.266Z,57.33
2022-11-14T08:06:33.720Z,57.67
2022-11-14T08:09:25.174Z,57.67
2022-11-14T08:12:25.512Z,55.67
2022-11-14T08:15:16.355Z,55.67
2022-11-14T08:18:04.201Z,62.33
2022-11-14T08:20:51.474Z,58.00
2022-11-14T08:23:38.879Z,57.00
2022-11-14T08:26:30.168Z,56.00
2022-11-14T08:29:22.599Z,56.00
2022-11-14T08:32:10.952Z,48.25
2022-11-14T08:34:58.114Z,55.00
2022-11-14T08:37:45.677Z,55.75
2022-11-14T08:40:32.795Z,53.75
2022-11-14T08:43:20.153Z,54.50
2022-11-14T08:46:08.490Z,54.00
2022-11-14T08:48:55.948Z,51.50
2022-11-14T08:51:42.781Z,52.00
2022-11-14T08:54:30.400Z,52.25
2022-11-14T08:57:17.376Z,53.50
2022-11-14T09:00:05.757Z,12.75
2022-11-14T09:02:54.894Z,53.75
2022-11-14T09:05:43.042Z,50.25
2022-11-14T09:08:30.983Z,49.50
2022-11-14T09:11:19.382Z,48.25
2022-11-14T09:14:06.384Z,47.75
2022-11-14T09:16:53.966Z,47.75
2022-11-14T09:19:42.587Z,48.00
2022-11-14T09:22:30.294Z,51.50
2022-11-14T09:25:17.443Z,47.25
2022-11-14T09:28:06.774Z,49.50
2022-11-14T09:30:54.158Z,50.25
2022-11-14T09:33:42.018Z,50.25
2022-11-14T09:36:30.520Z,50.00
2022-11-14T09:39:18.157Z,49.50
2022-11-14T09:42:20.021Z,49.00
2022-11-14T09:45:13.383Z,50.00
2022-11-14T09:48:08.055Z,48.25
2022-11-14T09:51:07.599Z,48.50
2022-11-14T09:54:06.320Z,47.50
2022-11-14T09:56:54.001Z,48.50
2022-11-14T09:59:41.445Z,49.75
2022-11-14T10:02:41.737Z,50.75
2022-11-14T10:05:43.828Z,47.75
2022-11-14T10:08:48.787Z,44.75
2022-11-14T10:11:41.586Z,48.50
2022-11-14T10:14:55.441Z,43.75
2022-11-14T10:17:58.865Z,39.25
2022-11-14T10:20:51.394Z,38.00
2022-11-14T10:23:48.666Z,37.50
2022-11-14T10:26:45.148Z,37.25
2022-11-14T10:29:51.269Z,40.25
2022-11-14T10:33:05.854Z,39.25
2022-11-14T10:35:59.987Z,40.00
2022-11-14T10:38:53.552Z,40.25
2022-11-14T10:41:57.174Z,42.25
2022-11-14T10:44:54.214Z,39.67
2022-11-14T10:47:44.843Z,39.25
2022-11-14T10:50:42.649Z,39.00
2022-11-14T10:53:43.585Z,39.75
2022-11-14T10:56:30.868Z,38.50
2022-11-14T10:59:20.379Z,40.25
2022-11-14T11:02:08.116Z,39.50
2022-11-14T11:05:13.333Z,37.25
2022-11-14T11:08:41.904Z,38.00
2022-11-14T11:11:32.670Z,37.25
2022-11-14T11:14:22.133Z,38.00
2022-11-14T11:17:20.797Z,37.75
2022-11-14T11:20:33.634Z,37.75
2022-11-14T11:23:25.453Z,39.00
2022-11-14T11:26:19.800Z,42.75
2022-11-14T11:29:18.364Z,41.75
2022-11-14T11:32:10.012Z,43.75
2022-11-14T11:34:59.170Z,44.00
2022-11-14T11:37:54.860Z,44.50
2022-11-14T11:40:45.437Z,41.25
2022-11-14T11:43:52.488Z,39.75
2022-11-14T11:46:48.818Z,40.50
2022-11-14T11:49:50.036Z,40.75
2022-11-14T11:52:49.735Z,41.00
2022-11-14T11:55:44.974Z,40.50
2022-11-14T11:58:44.468Z,41.25
2022-11-14T12:01:32.223Z,42.50
2022-11-14T12:04:19.960Z,38.50
2022-11-14T12:07:13.624Z,40.00
2022-11-14T12:10:10.579Z,38.00
2022-11-14T12:13:35.620Z,38.00
2022-11-14T12:16:41.399Z,42.00
2022-11-14T12:19:43.997Z,38.50
2022-11-14T12:22:58.621Z,37.25
2022-11-14T12:25:59.262Z,36.00
2022-11-14T12:29:03.879Z,37.50
2022-11-14T12:31:59.570Z,37.25
2022-11-14T12:34:48.990Z,37.25
2022-11-14T12:37:38.848Z,36.50
2022-11-14T12:40:30.706Z,38.75
2022-11-14T12:43:37.221Z,39.00
2022-11-14T12:46:25.084Z,34.25
2022-11-14T12:49:39.888Z,38.00
2022-11-14T12:52:54.037Z,35.20
2022-11-14T12:56:13.041Z,39.00
2022-11-14T12:59:14.990Z,36.50
2022-11-14T13:02:27.783Z,34.50
2022-11-14T13:05:33.912Z,35.50
2022-11-14T13:08:43.330Z,36.25
2022-11-14T13:12:02.044Z,36.00
2022-11-14T13:15:09.418Z,35.00
2022-11-14T13:18:23.494Z,35.00
2022-11-14T13:21:45.650Z,37.25
2022-11-14T13:25:06.200Z,33.50
2022-11-14T13:28:21.805Z,33.25
2022-11-14T13:31:07.876Z,34.75
2022-11-14T13:33:59.970Z,33.00
2022-11-14T13:36:53.548Z,31.75
2022-11-14T13:39:49.703Z,34.50
2022-11-14T13:42:51.593Z,32.00
2022-11-14T13:45:53.646Z,33.75
2022-11-14T13:49:09.176Z,36.00
2022-11-14T13:51:58.260Z,32.75
2022-11-14T13:54:49.437Z,35.00
2022-11-14T13:57:48.190Z,32.00
2022-11-14T14:00:58.596Z,28.40
2022-11-14T14:04:10.251Z,32.50
2022-11-14T14:07:09.094Z,32.20
2022-11-14T14:10:07.408Z,33.40
2022-11-14T14:13:13.027Z,33.00
2022-11-14T14:16:08.311Z,36.00
2022-11-14T14:19:05.445Z,36.00
2022-11-14T14:22:02.240Z,36.25
2022-11-14T14:25:00.065Z,35.25
2022-11-14T14:27:58.948Z,37.00
2022-11-14T14:31:12.975Z,34.00
2022-11-14T14:34:00.411Z,34.25
2022-11-14T14:36:52.819Z,34.50
2022-11-14T14:39:39.977Z,33.25
2022-11-14T14:42:33.663Z,30.20
2022-11-14T14:45:24.943Z,34.25
2022-11-14T14:48:16.560Z,41.75
2022-11-14T14:51:07.449Z,36.50
2022-11-14T14:53:55.212Z,36.75
2022-11-14T14:56:54.181Z,35.00
2022-11-14T14:59:42.245Z,34.50
2022-11-14T15:02:31.228Z,33.75
2022-11-14T15:05:28.552Z,32.80
2022-11-14T15:08:17.608Z,36.20
2022-11-14T15:11:05.630Z,37.75
2022-11-14T15:13:57.716Z,32.60
2022-11-14T15:16:46.743Z,35.50
2022-11-14T15:19:41.423Z,31.40
2022-11-14T15:22:30.361Z,45.25
2022-11-14T15:25:21.422Z,65.25
2022-11-14T15:28:16.550Z,45.00
2022-11-14T15:31:06.208Z,48.25
2022-11-14T15:34:05.680Z,44.75
2022-11-14T15:37:23.551Z,46.50
2022-11-14T15:40:21.299Z,21.25
2022-11-14T15:43:45.344Z,45.25
2022-11-14T15:46:53.280Z,43.00
2022-11-14T15:49:41.107Z,43.00
2022-11-14T15:52:33.928Z,44.50
2022-11-14T15:55:25.352Z,48.00
2022-11-14T15:58:27.860Z,44.00
2022-11-14T16:01:24.196Z,50.25
2022-11-14T16:04:15.608Z,46.50
2022-11-14T16:07:03.764Z,48.00
2022-11-14T16:09:51.104Z,44.00
2022-11-14T16:12:40.029Z,42.50
2022-11-14T16:15:26.908Z,41.25
2022-11-14T16:18:14.476Z,32.25
2022-11-14T16:21:01.638Z,41.00
2022-11-14T16:23:50.247Z,39.00
2022-11-14T16:26:38.279Z,41.00
2022-11-14T16:29:27.688Z,39.50
2022-11-14T16:32:15.080Z,40.25
2022-11-14T16:35:02.509Z,40.00
2022-11-14T16:37:50.667Z,45.25
2022-11-14T16:40:38.043Z,37.50
2022-11-14T16:43:25.149Z,37.50
2022-11-14T16:46:13.776Z,38.00
2022-11-14T16:49:00.739Z,37.00
2022-11-14T16:51:50.797Z,36.00
2022-11-14T16:54:38.152Z,39.00
2022-11-14T16:57:26.102Z,34.00
2022-11-14T17:00:14.716Z,35.50
2022-11-14T17:03:03.484Z,34.00
2022-11-14T17:05:52.496Z,35.00
2022-11-14T17:08:40.107Z,34.00
2022-11-14T17:11:28.298Z,32.25
2022-11-14T17:14:15.287Z,31.60
2022-11-14T17:17:02.357Z,35.00
2022-11-14T17:19:51.315Z,32.40
2022-11-14T17:22:38.210Z,35.00
2022-11-14T17:25:25.857Z,37.75
2022-11-14T17:28:12.807Z,34.25
2022-11-14T17:31:00.224Z,35.00
2022-11-14T17:33:52.454Z,32.50
2022-11-14T17:36:41.168Z,17.33
2022-11-14T17:39:27.886Z,34.75
2022-11-14T17:42:15.048Z,35.75
2022-11-14T17:45:02.087Z,38.00
2022-11-14T17:47:49.195Z,38.25
2022-11-14T17:50:40.091Z,40.50
2022-11-14T17:53:28.874Z,40.75
2022-11-14T17:56:17.363Z,41.00
2022-11-14T17:59:04.900Z,41.00
2022-11-14T18:01:52.664Z,45.75
2022-11-14T18:04:40.265Z,44.25
2022-11-14T18:07:27.274Z,44.50
2022-11-14T18:10:16.434Z,43.50
2022-11-14T18:13:05.117Z,44.25
2022-11-14T18:15:52.903Z,45.75
2022-11-14T18:18:40.082Z,45.75
2022-11-14T18:21:27.515Z,47.75
2022-11-14T18:24:15.040Z,45.25
2022-11-14T18:27:03.849Z,45.50
2022-11-14T18:29:50.752Z,46.00
2022-11-14T18:32:37.870Z,38.00
2022-11-14T18:35:25.910Z,43.00
2022-11-14T18:38:12.990Z,44.75
2022-11-14T18:41:01.866Z,42.00
2022-11-14T18:43:50.868Z,45.50
2022-11-14T18:46:38.483Z,41.75
2022-11-14T18:49:28.283Z,41.00
2022-11-14T18:52:17.468Z,45.25
2022-11-14T18:55:05.448Z,48.25
2022-11-14T18:57:52.136Z,45.00
2022-11-14T19:00:41.986Z,42.50
2022-11-14T19:03:30.133Z,45.00
2022-11-14T19:06:18.370Z,44.75
2022-11-14T19:09:11.140Z,45.25
2022-11-14T19:12:16.504Z,16.00
2022-11-14T19:15:03.718Z,39.50
2022-11-14T19:17:52.572Z,48.25
2022-11-14T19:20:39.304Z,42.00
2022-11-14T19:23:26.424Z,38.25
2022-11-14T19:26:13.472Z,44.25
2022-11-14T19:29:04.850Z,39.50
2022-11-14T19:31:53.303Z,43.75
2022-11-14T19:34:41.696Z,44.75
2022-11-14T19:37:29.798Z,39.50
2022-11-14T19:40:17.160Z,44.25
2022-11-14T19:43:07.226Z,44.25
2022-11-14T19:45:56.243Z,48.00
2022-11-14T19:48:43.802Z,45.25
2022-11-14T19:51:33.906Z,45.75
2022-11-14T19:54:20.957Z,44.50
2022-11-14T19:57:08.272Z,42.25
2022-11-14T19:59:55.312Z,44.50
2022-11-14T20:02:42.773Z,44.50
2022-11-14T20:05:30.306Z,46.50
2022-11-14T20:08:19.247Z,41.25
2022-11-14T20:11:07.520Z,46.25
2022-11-14T20:13:56.319Z,43.75
2022-11-14T20:16:43.552Z,41.00
2022-11-14T20:19:31.453Z,45.75
2022-11-14T20:22:18.913Z,42.25
2022-11-14T20:25:08.878Z,44.50
2022-11-14T20:27:56.480Z,43.25
2022-11-14T20:30:44.535Z,42.25
2022-11-14T20:33:32.725Z,43.25
2022-11-14T20:36:22.495Z,42.75
2022-11-14T20:39:10.081Z,40.25
2022-11-14T20:41:58.972Z,41.75
2022-11-14T20:44:46.183Z,43.25
2022-11-14T20:47:33.455Z,48.25
2022-11-14T20:50:21.068Z,47.00
2022-11-14T20:53:08.707Z,43.50
2022-11-14T20:55:55.783Z,46.50
2022-11-14T20:58:46.452Z,46.75
2022-11-14T21:01:33.699Z,45.25
2022-11-14T21:04:22.003Z,43.50
2022-11-14T21:07:08.925Z,36.75
2022-11-14T21:10:10.278Z,44.00
2022-11-14T21:13:10.951Z,42.50
2022-11-14T21:16:00.336Z,41.75
2022-11-14T21:18:48.411Z,42.75
2022-11-14T21:21:37.418Z,44.25
2022-11-14T21:24:24.771Z,40.75
2022-11-14T21:27:13.437Z,41.50
2022-11-14T21:30:00.599Z,36.50
2022-11-14T21:32:49.201Z,39.25
2022-11-14T21:35:36.145Z,41.75
2022-11-14T21:38:23.514Z,46.25
2022-11-14T21:41:12.925Z,38.00
2022-11-14T21:44:02.362Z,35.75
2022-11-14T21:46:49.971Z,33.75
2022-11-14T21:49:38.689Z,36.25
2022-11-14T21:52:25.682Z,37.25
2022-11-14T21:55:13.144Z,32.75
2022-11-14T21:58:00.357Z,37.50
2022-11-14T22:00:47.444Z,38.75
2022-11-14T22:03:52.167Z,37.50
2022-11-14T22:06:41.951Z,39.25
2022-11-14T22:09:29.303Z,37.75
2022-11-14T22:12:16.339Z,36.25
2022-11-14T22:15:03.412Z,39.25
2022-11-14T22:17:51.003Z,33.75
2022-11-14T22:20:37.957Z,37.50
2022-11-14T22:23:27.386Z,38.75
2022-11-14T22:26:15.406Z,37.00
2022-11-14T22:29:02.576Z,39.75
2022-11-14T22:31:52.847Z,37.50
2022-11-14T22:34:40.504Z,38.50
2022-11-14T22:37:27.554Z,37.25
2022-11-14T22:40:16.884Z,40.00
2022-11-14T22:43:03.787Z,39.25
2022-11-14T22:45:53.164Z,41.00
2022-11-14T22:48:40.165Z,31.50
2022-11-14T22:51:28.985Z,41.50
2022-11-14T22:54:15.805Z,41.00
2022-11-14T22:57:04.585Z,40.50
2022-11-14T22:59:51.638Z,42.25
2022-11-14T23:02:38.770Z,39.75
2022-11-14T23:05:25.580Z,40.00
2022-11-14T23:08:12.766Z,36.25
2022-11-14T23:11:04.908Z,42.75
2022-11-14T23:13:55.452Z,41.25
2022-11-14T23:16:42.356Z,42.25
2022-11-14T23:19:29.318Z,37.50
2022-11-14T23:22:16.586Z,37.75
2022-11-14T23:25:04.036Z,39.75
2022-11-14T23:27:51.377Z,37.50
2022-11-14T23:30:40.181Z,37.50
2022-11-14T23:33:27.447Z,38.75
2022-11-14T23:36:15.038Z,36.75
2022-11-14T23:39:01.920Z,39.00
2022-11-14T23:41:48.935Z,36.25
2022-11-14T23:44:36.248Z,37.25
2022-11-14T23:47:25.031Z,36.25
2022-11-14T23:50:12.172Z,36.00
2022-11-14T23:52:59.336Z,37.80
2022-11-14T23:55:52.910Z,33.50
2022-11-14T23:58:40.499Z,36.75
